Time;durP1;ratioP1;P1;durP2;ratioP2;P2;SDS_P1;SDS_P2;PMS_P1;PMS_P2;Temp;Humidity;BMP_temperature;BMP_pressure;BME280_temperature;BME280_humidity;BME280_pressure;Samples;Min_cycle;Max_cycle;Signal;HPM_P1;HPM_P2
2023/04/16 00:00:30;;;;;;;;;;;8.40;99.90;;;;;;5071788;28;19962;-67
2023/04/16 00:02:56;;;;;;;;;;;8.30;99.90;;;;;;5068529;28;20384;-66
2023/04/16 00:05:21;;;;;;;;;;;8.30;99.90;;;;;;5077875;28;19999;-66
2023/04/16 00:07:47;;;;;;;;;;;8.30;99.90;;;;;;5070177;28;19935;-66
2023/04/16 00:10:13;;;;;;;;;;;8.30;99.90;;;;;;5077894;28;19912;-66
2023/04/16 00:12:38;;;;;;;;;;;8.30;99.90;;;;;;5085492;28;20400;-66
2023/04/16 00:15:04;;;;;;;;;;;8.20;99.90;;;;;;5077297;28;19912;-65
2023/04/16 00:17:29;;;;;;;;;;;8.20;99.90;;;;;;5077169;28;19919;-64
2023/04/16 00:19:55;;;;;;;;;;;8.10;99.90;;;;;;5074876;28;19953;-65
2023/04/16 00:22:21;;;;;;;;;;;8.00;99.90;;;;;;5078198;28;19920;-64
2023/04/16 00:24:46;;;;;;;;;;;8.00;99.90;;;;;;5071370;28;20019;-66
2023/04/16 00:27:12;;;;;;;;;;;8.10;99.90;;;;;;5067777;28;20010;-65
2023/04/16 00:29:37;;;;;;;;;;;8.10;99.90;;;;;;5079713;28;20363;-66
2023/04/16 00:32:03;;;;;;;;;;;8.20;99.90;;;;;;5076433;28;19965;-65
2023/04/16 00:34:29;;;;;;;;;;;8.20;99.90;;;;;;5071620;28;19919;-66
2023/04/16 00:36:54;;;;;;;;;;;8.20;99.90;;;;;;5067101;28;19912;-65
2023/04/16 00:39:20;;;;;;;;;;;8.20;99.90;;;;;;5069717;28;19960;-66
2023/04/16 00:41:45;;;;;;;;;;;8.20;99.90;;;;;;5070586;28;19919;-61
2023/04/16 00:44:11;;;;;;;;;;;8.20;99.90;;;;;;5080059;28;19974;-66
2023/04/16 00:46:37;;;;;;;;;;;8.20;99.90;;;;;;5079572;28;19912;-65
2023/04/16 00:49:03;;;;;;;;;;;8.10;99.90;;;;;;5086789;28;20348;-65
2023/04/16 00:51:29;;;;;;;;;;;8.20;99.90;;;;;;5072139;28;19916;-66
2023/04/16 00:53:56;;;;;;;;;;;8.20;99.90;;;;;;5078218;28;19935;-66
2023/04/16 00:56:23;;;;;;;;;;;8.30;99.90;;;;;;5069029;28;19924;-66
2023/04/16 00:58:48;;;;;;;;;;;8.30;99.90;;;;;;5070028;28;19919;-66
2023/04/16 01:01:14;;;;;;;;;;;8.30;99.90;;;;;;5073675;28;19913;-65
2023/04/16 01:03:42;;;;;;;;;;;8.40;99.90;;;;;;5072921;28;19967;-66
2023/04/16 01:06:08;;;;;;;;;;;8.40;99.90;;;;;;5080346;28;20034;-65
2023/04/16 01:08:34;;;;;;;;;;;8.40;99.90;;;;;;5081773;28;19935;-65
2023/04/16 01:10:59;;;;;;;;;;;8.50;99.90;;;;;;5074349;28;20368;-65
2023/04/16 01:13:25;;;;;;;;;;;8.50;99.90;;;;;;5077501;28;20305;-65
2023/04/16 01:15:51;;;;;;;;;;;8.50;99.90;;;;;;5071496;28;19916;-66
2023/04/16 01:18:17;;;;;;;;;;;8.60;99.90;;;;;;5078319;28;19918;-65
2023/04/16 01:20:43;;;;;;;;;;;8.60;99.90;;;;;;5095331;28;19913;-65
2023/04/16 01:23:09;;;;;;;;;;;8.60;99.90;;;;;;5078215;28;19919;-65
2023/04/16 01:25:34;;;;;;;;;;;8.70;99.90;;;;;;5075174;28;19913;-65
2023/04/16 01:28:00;;;;;;;;;;;8.60;99.90;;;;;;5077629;28;19994;-64
2023/04/16 01:30:25;;;;;;;;;;;8.70;99.90;;;;;;5073329;28;19917;-65
2023/04/16 01:32:51;;;;;;;;;;;8.70;99.90;;;;;;5075971;28;20388;-65
2023/04/16 01:35:19;;;;;;;;;;;8.70;99.90;;;;;;5075185;28;19912;-65
2023/04/16 01:37:45;;;;;;;;;;;8.60;99.90;;;;;;5073319;28;19959;-65
2023/04/16 01:40:11;;;;;;;;;;;8.60;99.90;;;;;;5081474;28;19943;-65
2023/04/16 01:42:37;;;;;;;;;;;8.50;99.90;;;;;;5102023;28;20003;-65
2023/04/16 01:45:03;;;;;;;;;;;8.50;99.90;;;;;;5069032;28;19920;-64
2023/04/16 01:47:29;;;;;;;;;;;8.50;99.90;;;;;;5080985;28;19970;-64
2023/04/16 01:49:54;;;;;;;;;;;8.50;99.90;;;;;;5073268;28;19948;-64
2023/04/16 01:52:20;;;;;;;;;;;8.50;99.90;;;;;;5083003;28;19919;-64
2023/04/16 01:54:46;;;;;;;;;;;8.50;99.90;;;;;;5071108;28;20307;-65
2023/04/16 01:57:11;;;;;;;;;;;8.50;99.90;;;;;;5073761;28;20367;-66
2023/04/16 01:59:37;;;;;;;;;;;8.50;99.90;;;;;;5084604;28;19954;-65
2023/04/16 02:02:06;;;;;;;;;;;8.40;99.90;;;;;;5068897;28;19920;-65
2023/04/16 02:04:31;;;;;;;;;;;8.30;99.90;;;;;;5071844;28;19924;-65
2023/04/16 02:06:57;;;;;;;;;;;8.30;99.90;;;;;;5075929;28;19919;-65
2023/04/16 02:09:23;;;;;;;;;;;8.30;99.90;;;;;;5077104;28;20280;-64
2023/04/16 02:11:48;;;;;;;;;;;8.20;99.90;;;;;;5084909;28;20244;-61
2023/04/16 02:14:14;;;;;;;;;;;8.20;99.90;;;;;;5073213;28;20011;-64
2023/04/16 02:16:40;;;;;;;;;;;8.20;99.90;;;;;;5083364;28;19916;-65
2023/04/16 02:19:05;;;;;;;;;;;8.10;99.90;;;;;;5068545;28;19913;-65
2023/04/16 02:21:31;;;;;;;;;;;8.10;99.90;;;;;;5068880;28;20003;-65
2023/04/16 02:23:57;;;;;;;;;;;8.10;99.90;;;;;;5075905;28;19928;-66
2023/04/16 02:26:22;;;;;;;;;;;8.00;99.90;;;;;;5072988;28;20322;-65
2023/04/16 02:28:48;;;;;;;;;;;8.00;99.90;;;;;;5079505;28;19912;-65
2023/04/16 02:31:16;;;;;;;;;;;8.10;99.90;;;;;;5074287;28;19912;-65
2023/04/16 02:33:42;;;;;;;;;;;8.00;99.90;;;;;;5076977;28;20429;-65
2023/04/16 02:36:10;;;;;;;;;;;8.00;99.90;;;;;;5071078;28;19920;-65
2023/04/16 02:38:36;;;;;;;;;;;7.90;99.90;;;;;;5076464;28;20249;-65
2023/04/16 02:41:01;;;;;;;;;;;7.90;99.90;;;;;;5076161;28;19923;-66
2023/04/16 02:43:27;;;;;;;;;;;8.00;99.90;;;;;;5071117;28;19932;-65
2023/04/16 02:45:53;;;;;;;;;;;8.00;99.90;;;;;;5077637;28;20002;-65
2023/04/16 02:48:18;;;;;;;;;;;8.00;99.90;;;;;;5073228;28;19912;-65
2023/04/16 02:50:44;;;;;;;;;;;8.00;99.90;;;;;;5080004;28;19916;-65
2023/04/16 02:53:10;;;;;;;;;;;8.10;99.90;;;;;;5067918;28;19921;-65
2023/04/16 02:55:35;;;;;;;;;;;8.10;99.90;;;;;;5069712;28;20030;-65
2023/04/16 02:58:01;;;;;;;;;;;8.00;99.90;;;;;;5069920;28;19950;-65
2023/04/16 03:00:27;;;;;;;;;;;8.00;99.90;;;;;;5076711;28;19913;-66
2023/04/16 03:02:52;;;;;;;;;;;8.00;99.90;;;;;;5070065;28;19920;-66
2023/04/16 03:05:18;;;;;;;;;;;8.00;99.90;;;;;;5073507;28;20322;-65
2023/04/16 03:07:43;;;;;;;;;;;8.00;99.90;;;;;;5076580;28;19919;-66
2023/04/16 03:10:10;;;;;;;;;;;8.00;99.90;;;;;;5074308;28;19919;-64
2023/04/16 03:12:36;;;;;;;;;;;8.10;99.90;;;;;;5073770;28;19963;-64
2023/04/16 03:15:02;;;;;;;;;;;8.10;99.90;;;;;;5082631;28;20371;-66
2023/04/16 03:17:27;;;;;;;;;;;8.00;99.90;;;;;;5074768;28;19988;-65
2023/04/16 03:19:53;;;;;;;;;;;8.10;99.90;;;;;;5075442;28;19913;-65
2023/04/16 03:22:18;;;;;;;;;;;8.10;99.90;;;;;;5076972;28;19912;-66
2023/04/16 03:24:44;;;;;;;;;;;8.00;99.90;;;;;;5080393;28;19925;-65
2023/04/16 03:27:10;;;;;;;;;;;8.00;99.90;;;;;;5076926;28;20371;-66
2023/04/16 03:29:37;;;;;;;;;;;8.00;99.90;;;;;;5084314;28;20022;-65
2023/04/16 03:32:04;;;;;;;;;;;8.00;99.90;;;;;;5067504;28;21349;-65
2023/04/16 03:34:30;;;;;;;;;;;8.00;99.90;;;;;;5078674;28;19913;-64
2023/04/16 03:36:55;;;;;;;;;;;8.10;99.90;;;;;;5070876;28;20015;-64
2023/04/16 03:39:21;;;;;;;;;;;8.10;99.90;;;;;;5071061;28;20265;-65
2023/04/16 03:41:47;;;;;;;;;;;8.20;99.90;;;;;;5078707;28;19955;-62
2023/04/16 03:44:12;;;;;;;;;;;8.20;99.90;;;;;;5080876;22;20371;-63
2023/04/16 03:46:38;;;;;;;;;;;8.20;99.90;;;;;;5071780;28;20253;-64
2023/04/16 03:49:03;;;;;;;;;;;8.20;99.90;;;;;;5070434;28;19920;-63
2023/04/16 03:51:29;;;;;;;;;;;8.20;99.90;;;;;;5070376;28;19912;-64
2023/04/16 03:53:55;;;;;;;;;;;8.20;99.90;;;;;;5065067;28;19920;-63
2023/04/16 03:56:20;;;;;;;;;;;8.20;99.90;;;;;;5065479;28;19912;-63
2023/04/16 03:58:46;;;;;;;;;;;8.20;99.90;;;;;;5056507;28;19921;-63
2023/04/16 04:01:12;;;;;;;;;;;8.20;99.90;;;;;;5054911;28;20280;-63
2023/04/16 04:03:37;;;;;;;;;;;8.20;99.90;;;;;;5058040;28;20023;-64
2023/04/16 04:06:07;;;;;;;;;;;8.20;99.90;;;;;;5052853;28;20395;-63
2023/04/16 04:08:32;;;;;;;;;;;8.20;99.90;;;;;;5057387;28;19913;-65
2023/04/16 04:10:58;;;;;;;;;;;8.20;99.90;;;;;;5057086;28;19919;-64
2023/04/16 04:13:23;;;;;;;;;;;8.20;99.90;;;;;;5068050;28;20313;-64
2023/04/16 04:15:49;;;;;;;;;;;8.30;99.90;;;;;;5062032;28;19920;-66
2023/04/16 04:18:15;;;;;;;;;;;8.30;99.90;;;;;;5052544;28;19912;-64
2023/04/16 04:20:40;;;;;;;;;;;8.20;99.90;;;;;;5056125;28;19913;-64
2023/04/16 04:23:06;;;;;;;;;;;8.20;99.90;;;;;;5057417;28;19970;-64
2023/04/16 04:25:32;;;;;;;;;;;8.20;99.90;;;;;;5054291;28;20372;-64
2023/04/16 04:27:57;;;;;;;;;;;8.20;99.90;;;;;;5057172;28;19913;-64
2023/04/16 04:30:23;;;;;;;;;;;8.20;99.90;;;;;;5052480;28;19919;-64
2023/04/16 04:32:48;;;;;;;;;;;8.20;99.90;;;;;;5057227;28;19917;-64
2023/04/16 04:35:14;;;;;;;;;;;8.20;99.90;;;;;;5056936;28;19956;-64
2023/04/16 04:37:40;;;;;;;;;;;8.30;99.90;;;;;;5059976;28;19978;-64
2023/04/16 04:40:05;;;;;;;;;;;8.30;99.90;;;;;;5054571;28;20425;-63
2023/04/16 04:42:31;;;;;;;;;;;8.30;99.90;;;;;;5054082;28;20000;-62
2023/04/16 04:44:57;;;;;;;;;;;8.30;99.90;;;;;;5058046;28;20392;-63
2023/04/16 04:47:22;;;;;;;;;;;8.40;99.90;;;;;;5059498;28;19912;-63
2023/04/16 04:49:48;;;;;;;;;;;8.40;99.90;;;;;;5056410;28;19912;-63
2023/04/16 04:52:13;;;;;;;;;;;8.40;99.90;;;;;;5056396;28;19912;-63
2023/04/16 04:54:40;;;;;;;;;;;8.30;99.90;;;;;;5060631;28;19912;-64
2023/04/16 04:57:06;;;;;;;;;;;8.30;99.90;;;;;;5060559;28;19959;-64
2023/04/16 04:59:32;;;;;;;;;;;8.30;99.90;;;;;;5055917;28;20520;-64
2023/04/16 05:01:58;;;;;;;;;;;8.30;99.90;;;;;;5062027;28;19913;-64
2023/04/16 05:04:23;;;;;;;;;;;8.30;99.90;;;;;;5052274;28;19921;-63
2023/04/16 05:06:49;;;;;;;;;;;8.30;99.90;;;;;;5052146;28;19935;-62
2023/04/16 05:09:15;;;;;;;;;;;8.40;99.90;;;;;;5058104;28;19912;-64
2023/04/16 05:11:41;;;;;;;;;;;8.40;99.90;;;;;;5051060;28;19924;-65
2023/04/16 05:14:06;;;;;;;;;;;8.40;99.90;;;;;;5060113;28;20187;-63
2023/04/16 05:16:35;;;;;;;;;;;8.40;99.90;;;;;;5052889;28;20037;-63
2023/04/16 05:19:00;;;;;;;;;;;8.40;99.90;;;;;;5064576;28;19912;-63
2023/04/16 05:21:26;;;;;;;;;;;8.40;99.90;;;;;;5058702;28;19920;-63
2023/04/16 05:23:52;;;;;;;;;;;8.40;99.90;;;;;;5057072;28;19917;-64
2023/04/16 05:26:17;;;;;;;;;;;8.50;99.90;;;;;;5056607;28;19999;-64
2023/04/16 05:28:43;;;;;;;;;;;8.50;99.90;;;;;;5064939;28;19932;-63
2023/04/16 05:31:08;;;;;;;;;;;8.50;99.90;;;;;;5055912;28;19913;-64
2023/04/16 05:33:34;;;;;;;;;;;8.60;99.90;;;;;;5057064;28;19959;-64
2023/04/16 05:36:00;;;;;;;;;;;8.70;99.90;;;;;;5053941;28;19913;-63
2023/04/16 05:38:25;;;;;;;;;;;8.70;99.90;;;;;;5055826;28;19956;-63
2023/04/16 05:40:51;;;;;;;;;;;8.70;99.90;;;;;;5059563;28;19920;-63
2023/04/16 05:43:16;;;;;;;;;;;8.80;99.90;;;;;;5058830;28;19916;-64
2023/04/16 05:45:42;;;;;;;;;;;8.80;99.90;;;;;;5059552;28;19970;-64
2023/04/16 05:48:08;;;;;;;;;;;8.90;99.90;;;;;;5060356;28;20265;-64
2023/04/16 05:50:34;;;;;;;;;;;9.00;99.90;;;;;;5059858;28;20004;-64
2023/04/16 05:52:59;;;;;;;;;;;9.00;99.90;;;;;;5058987;28;20433;-64
2023/04/16 05:55:25;;;;;;;;;;;9.10;99.90;;;;;;5060227;28;19917;-64
2023/04/16 05:57:51;;;;;;;;;;;9.20;99.90;;;;;;5068105;28;19920;-64
2023/04/16 06:00:16;;;;;;;;;;;9.30;99.90;;;;;;5077834;28;19919;-65
2023/04/16 06:02:42;;;;;;;;;;;9.30;99.90;;;;;;5075350;28;19916;-64
2023/04/16 06:05:08;;;;;;;;;;;9.40;99.90;;;;;;5069837;28;19924;-65
2023/04/16 06:07:33;;;;;;;;;;;9.40;99.90;;;;;;5080048;28;19912;-65
2023/04/16 06:09:59;;;;;;;;;;;9.40;99.90;;;;;;5079141;28;19913;-65
2023/04/16 06:12:24;;;;;;;;;;;9.50;99.90;;;;;;5075317;28;19912;-64
2023/04/16 06:14:50;;;;;;;;;;;9.60;99.90;;;;;;5071510;28;19917;-65
2023/04/16 06:17:16;;;;;;;;;;;9.60;99.90;;;;;;5069725;28;19913;-65
2023/04/16 06:19:41;;;;;;;;;;;9.60;99.90;;;;;;5071388;28;20368;-64
2023/04/16 06:22:07;;;;;;;;;;;9.60;99.90;;;;;;5073461;28;19922;-64
2023/04/16 06:24:33;;;;;;;;;;;9.60;99.90;;;;;;5077220;28;20386;-64
2023/04/16 06:26:59;;;;;;;;;;;9.60;99.90;;;;;;5076754;28;19912;-64
2023/04/16 06:29:25;;;;;;;;;;;9.60;99.90;;;;;;5078964;28;19917;-65
2023/04/16 06:31:50;;;;;;;;;;;9.60;99.90;;;;;;5077098;28;19912;-65
2023/04/16 06:34:16;;;;;;;;;;;9.60;99.90;;;;;;5075091;28;20015;-64
2023/04/16 06:36:41;;;;;;;;;;;9.60;99.90;;;;;;5075387;28;19912;-64
2023/04/16 06:39:07;;;;;;;;;;;9.60;99.90;;;;;;5065296;28;20566;-64
2023/04/16 06:41:33;;;;;;;;;;;9.60;99.90;;;;;;5074416;28;19927;-63
2023/04/16 06:43:58;;;;;;;;;;;9.60;99.90;;;;;;5068834;28;19964;-63
2023/04/16 06:46:24;;;;;;;;;;;9.60;99.90;;;;;;5067780;28;19912;-63
2023/04/16 06:48:49;;;;;;;;;;;9.60;99.90;;;;;;5071736;28;19919;-63
2023/04/16 06:51:15;;;;;;;;;;;9.60;99.90;;;;;;5063423;28;19943;-64
2023/04/16 06:53:41;;;;;;;;;;;9.70;99.90;;;;;;5068440;28;19920;-63
2023/04/16 06:56:07;;;;;;;;;;;9.70;99.90;;;;;;5067274;28;20054;-63
2023/04/16 06:58:32;;;;;;;;;;;9.80;99.90;;;;;;5069358;28;19990;-64
2023/04/16 07:00:58;;;;;;;;;;;9.80;99.90;;;;;;5071556;28;19912;-64
2023/04/16 07:03:24;;;;;;;;;;;9.80;99.90;;;;;;5075029;28;19912;-64
2023/04/16 07:05:49;;;;;;;;;;;9.90;99.90;;;;;;5062777;28;19924;-65
2023/04/16 07:08:15;;;;;;;;;;;9.90;99.90;;;;;;5074201;28;19919;-65
2023/04/16 07:10:41;;;;;;;;;;;10.00;99.90;;;;;;5068460;28;19962;-64
2023/04/16 07:13:07;;;;;;;;;;;10.10;99.90;;;;;;5073766;28;19922;-63
2023/04/16 07:15:32;;;;;;;;;;;10.10;99.90;;;;;;5071265;28;19913;-63
2023/04/16 07:17:58;;;;;;;;;;;10.20;99.90;;;;;;5068652;28;20343;-63
2023/04/16 07:20:23;;;;;;;;;;;10.20;99.90;;;;;;5078145;28;19916;-64
2023/04/16 07:22:49;;;;;;;;;;;10.30;99.90;;;;;;5073442;28;20002;-62
2023/04/16 07:25:15;;;;;;;;;;;10.40;99.90;;;;;;5064403;28;19921;-63
2023/04/16 07:27:40;;;;;;;;;;;10.50;99.90;;;;;;5075020;28;20379;-64
2023/04/16 07:30:06;;;;;;;;;;;10.60;99.90;;;;;;5081302;28;19919;-63
2023/04/16 07:32:32;;;;;;;;;;;10.70;99.90;;;;;;5070025;28;19912;-63
2023/04/16 07:34:58;;;;;;;;;;;10.70;99.90;;;;;;5073507;28;19916;-63
2023/04/16 07:37:23;;;;;;;;;;;10.80;99.90;;;;;;5081602;28;19919;-64
2023/04/16 07:39:50;;;;;;;;;;;10.90;99.90;;;;;;5080250;28;20007;-64
2023/04/16 07:42:16;;;;;;;;;;;11.00;99.90;;;;;;5077639;28;20015;-63
2023/04/16 07:44:41;;;;;;;;;;;11.10;99.90;;;;;;5058563;28;19999;-64
2023/04/16 07:47:07;;;;;;;;;;;11.10;99.90;;;;;;5065846;28;20425;-65
2023/04/16 07:49:32;;;;;;;;;;;11.20;99.90;;;;;;5063144;28;19965;-62
2023/04/16 07:51:58;;;;;;;;;;;11.30;99.90;;;;;;5059805;28;20005;-65
2023/04/16 07:54:24;;;;;;;;;;;11.30;99.90;;;;;;5057981;28;19936;-63
2023/04/16 07:56:49;;;;;;;;;;;11.40;99.90;;;;;;5056828;28;19999;-64
2023/04/16 07:59:15;;;;;;;;;;;11.50;99.90;;;;;;5052574;28;20017;-64
2023/04/16 08:01:41;;;;;;;;;;;11.60;99.90;;;;;;5055336;28;20062;-64
2023/04/16 08:04:06;;;;;;;;;;;11.70;99.90;;;;;;5065202;28;19921;-64
2023/04/16 08:06:32;;;;;;;;;;;11.80;99.90;;;;;;5055491;28;20288;-65
2023/04/16 08:08:57;;;;;;;;;;;11.90;99.90;;;;;;5058017;28;19952;-65
2023/04/16 08:11:23;;;;;;;;;;;12.00;99.90;;;;;;5056969;28;20383;-65
2023/04/16 08:13:49;;;;;;;;;;;12.20;99.90;;;;;;5053649;28;21236;-65
2023/04/16 08:16:14;;;;;;;;;;;12.30;99.90;;;;;;5057033;28;19912;-64
2023/04/16 08:18:40;;;;;;;;;;;12.40;99.90;;;;;;5062277;28;19916;-64
2023/04/16 08:21:06;;;;;;;;;;;12.50;99.90;;;;;;5057909;28;20009;-64
2023/04/16 08:23:32;;;;;;;;;;;12.70;99.90;;;;;;5057906;28;19913;-65
2023/04/16 08:25:57;;;;;;;;;;;12.80;99.90;;;;;;5054945;28;19923;-64
2023/04/16 08:28:23;;;;;;;;;;;12.80;99.90;;;;;;5057903;28;20324;-64
2023/04/16 08:30:48;;;;;;;;;;;12.80;99.90;;;;;;5056289;28;19920;-65
2023/04/16 08:33:14;;;;;;;;;;;12.90;99.90;;;;;;5061359;28;19913;-65
2023/04/16 08:35:40;;;;;;;;;;;12.90;99.90;;;;;;5057375;28;20303;-64
2023/04/16 08:38:06;;;;;;;;;;;13.00;99.90;;;;;;5064428;28;19956;-66
2023/04/16 08:40:33;;;;;;;;;;;13.10;99.90;;;;;;5052768;28;19952;-65
2023/04/16 08:43:01;;;;;;;;;;;13.10;99.90;;;;;;5048540;28;19925;-65
2023/04/16 08:45:26;;;;;;;;;;;13.00;99.90;;;;;;5055060;28;19979;-65
2023/04/16 08:47:52;;;;;;;;;;;13.10;99.90;;;;;;5052783;28;19916;-65
2023/04/16 08:50:24;;;;;;;;;;;13.00;99.90;;;;;;5053502;28;19959;-65
2023/04/16 08:52:51;;;;;;;;;;;13.00;99.90;;;;;;5061819;28;19913;-64
2023/04/16 08:55:31;;;;;;;;;;;13.10;99.90;;;;;;5054258;28;19913;-64
2023/04/16 08:57:57;;;;;;;;;;;13.00;99.90;;;;;;5050228;28;19968;-64
2023/04/16 09:00:23;;;;;;;;;;;13.10;99.90;;;;;;5058151;28;19964;-65
2023/04/16 09:02:50;;;;;;;;;;;13.00;99.90;;;;;;5063086;28;19912;-65
2023/04/16 09:05:16;;;;;;;;;;;13.20;99.90;;;;;;5059879;28;19946;-65
2023/04/16 09:07:43;;;;;;;;;;;13.20;99.90;;;;;;5057746;28;19952;-65
2023/04/16 09:10:09;;;;;;;;;;;13.30;99.90;;;;;;5050589;28;20270;-65
2023/04/16 09:12:34;;;;;;;;;;;13.30;99.90;;;;;;5057573;28;19916;-64
2023/04/16 09:15:02;;;;;;;;;;;13.40;99.90;;;;;;5071698;28;19919;-65
2023/04/16 09:17:27;;;;;;;;;;;13.60;99.90;;;;;;5069024;28;20260;-64
2023/04/16 09:19:53;;;;;;;;;;;13.50;99.90;;;;;;5072860;28;20417;-64
2023/04/16 09:22:19;;;;;;;;;;;13.70;99.90;;;;;;5075213;28;19913;-65
2023/04/16 09:24:45;;;;;;;;;;;13.80;99.90;;;;;;5078342;28;19967;-65
2023/04/16 09:27:11;;;;;;;;;;;13.90;99.90;;;;;;5077677;28;21490;-64
2023/04/16 09:29:37;;;;;;;;;;;13.90;99.90;;;;;;5079179;28;19967;-64
2023/04/16 09:32:04;;;;;;;;;;;13.90;99.90;;;;;;5067661;28;19920;-65
2023/04/16 09:34:33;;;;;;;;;;;14.00;99.90;;;;;;5072291;28;19912;-65
2023/04/16 09:37:17;;;;;;;;;;;14.10;99.90;;;;;;5073790;28;19924;-65
2023/04/16 09:39:43;;;;;;;;;;;14.30;99.90;;;;;;5079164;28;19912;-65
2023/04/16 09:42:09;;;;;;;;;;;14.60;99.90;;;;;;5058417;28;19917;-64
2023/04/16 09:44:36;;;;;;;;;;;14.70;99.90;;;;;;5072563;28;19932;-65
2023/04/16 09:47:08;;;;;;;;;;;14.90;99.90;;;;;;5075575;28;19917;-65
2023/04/16 09:49:37;;;;;;;;;;;15.10;99.90;;;;;;5068227;28;19971;-65
2023/04/16 09:52:07;;;;;;;;;;;15.30;99.90;;;;;;5072641;28;19932;-65
2023/04/16 09:54:33;;;;;;;;;;;15.50;99.90;;;;;;5070502;28;19999;-65
2023/04/16 09:56:59;;;;;;;;;;;15.60;99.90;;;;;;5065429;28;20008;-64
2023/04/16 09:59:29;;;;;;;;;;;15.80;99.90;;;;;;5072647;28;19966;-66
2023/04/16 10:01:57;;;;;;;;;;;15.70;99.90;;;;;;5077608;28;19916;-65
2023/04/16 10:04:23;;;;;;;;;;;15.90;99.90;;;;;;5074723;28;19920;-66
2023/04/16 10:07:02;;;;;;;;;;;15.90;99.90;;;;;;5069993;28;19916;-65
2023/04/16 10:09:30;;;;;;;;;;;16.00;99.90;;;;;;5072806;28;19921;-65
2023/04/16 10:11:56;;;;;;;;;;;16.00;99.90;;;;;;5072022;28;20327;-63
2023/04/16 10:14:21;;;;;;;;;;;16.10;99.90;;;;;;5069087;28;19917;-65
2023/04/16 10:16:47;;;;;;;;;;;16.30;99.90;;;;;;5072308;28;20426;-66
2023/04/16 10:19:12;;;;;;;;;;;16.40;99.90;;;;;;5058655;28;19913;-65
2023/04/16 10:21:39;;;;;;;;;;;16.50;99.90;;;;;;5062871;28;19951;-65
2023/04/16 10:24:05;;;;;;;;;;;16.80;99.90;;;;;;5067466;28;19943;-65
2023/04/16 10:26:32;;;;;;;;;;;16.90;99.90;;;;;;5070429;28;20356;-65
2023/04/16 10:28:58;;;;;;;;;;;17.20;99.90;;;;;;5065077;28;19916;-66
2023/04/16 10:31:24;;;;;;;;;;;17.30;99.90;;;;;;5075583;28;19935;-65
2023/04/16 10:33:51;;;;;;;;;;;17.50;99.90;;;;;;5074591;28;19920;-65
2023/04/16 10:36:23;;;;;;;;;;;17.10;99.90;;;;;;5063070;28;19920;-64
2023/04/16 10:38:51;;;;;;;;;;;16.90;99.90;;;;;;5068874;28;19912;-63
2023/04/16 10:41:19;;;;;;;;;;;17.10;99.90;;;;;;5072572;28;19912;-62
2023/04/16 10:43:45;;;;;;;;;;;16.90;99.90;;;;;;5079400;28;20292;-64
2023/04/16 10:46:21;;;;;;;;;;;17.00;99.90;;;;;;5069795;28;19913;-63
2023/04/16 10:48:47;;;;;;;;;;;17.00;99.90;;;;;;5085268;28;19918;-63
2023/04/16 10:51:32;;;;;;;;;;;16.80;99.90;;;;;;5076294;28;19920;-63
2023/04/16 10:54:02;;;;;;;;;;;16.50;99.90;;;;;;5070771;28;19912;-63
2023/04/16 10:56:30;;;;;;;;;;;16.60;99.90;;;;;;5081876;28;19963;-64
2023/04/16 10:58:56;;;;;;;;;;;16.50;99.90;;;;;;5071469;28;19981;-63
2023/04/16 11:01:29;;;;;;;;;;;16.40;99.90;;;;;;5084458;28;19916;-63
2023/04/16 11:03:54;;;;;;;;;;;16.30;99.90;;;;;;5069199;28;19920;-63
2023/04/16 11:06:25;;;;;;;;;;;16.40;99.90;;;;;;5071658;28;19912;-63
2023/04/16 11:08:50;;;;;;;;;;;16.40;99.90;;;;;;5073632;28;20364;-63
2023/04/16 11:11:17;;;;;;;;;;;16.30;99.90;;;;;;5071382;28;19919;-62
2023/04/16 11:13:44;;;;;;;;;;;16.50;99.90;;;;;;5075306;28;19966;-64
2023/04/16 11:16:10;;;;;;;;;;;16.50;99.90;;;;;;5070052;28;20363;-64
2023/04/16 11:18:39;;;;;;;;;;;16.40;99.90;;;;;;5084427;28;20257;-63
2023/04/16 11:21:09;;;;;;;;;;;16.30;99.90;;;;;;5071751;28;19913;-62
2023/04/16 11:23:47;;;;;;;;;;;16.40;99.90;;;;;;5069656;28;19916;-63
2023/04/16 11:26:20;;;;;;;;;;;16.30;99.90;;;;;;5061657;28;19912;-61
2023/04/16 11:28:45;;;;;;;;;;;16.50;99.90;;;;;;5082785;28;19912;-62
2023/04/16 11:31:11;;;;;;;;;;;16.60;99.90;;;;;;5073534;28;20008;-63
2023/04/16 11:33:37;;;;;;;;;;;16.60;99.90;;;;;;5071495;28;19916;-64
2023/04/16 11:36:03;;;;;;;;;;;16.70;99.90;;;;;;5074712;28;19913;-63
2023/04/16 11:38:33;;;;;;;;;;;16.80;99.90;;;;;;5073467;28;20372;-63
2023/04/16 11:40:59;;;;;;;;;;;16.90;99.90;;;;;;5076964;28;20360;-63
2023/04/16 11:43:25;;;;;;;;;;;17.10;99.90;;;;;;5077890;28;19928;-62
2023/04/16 11:45:57;;;;;;;;;;;16.90;99.90;;;;;;5075017;28;20405;-63
2023/04/16 11:48:22;;;;;;;;;;;17.00;99.90;;;;;;5074631;28;19913;-62
2023/04/16 11:50:57;;;;;;;;;;;17.00;99.90;;;;;;5072581;28;19984;-64
2023/04/16 11:53:23;;;;;;;;;;;17.10;99.90;;;;;;5068734;28;19920;-63
2023/04/16 11:55:49;;;;;;;;;;;16.90;99.90;;;;;;5077385;28;19913;-63
2023/04/16 11:58:15;;;;;;;;;;;17.10;99.90;;;;;;5064131;28;19917;-65
2023/04/16 12:00:41;;;;;;;;;;;17.30;99.90;;;;;;5077888;28;20061;-64
2023/04/16 12:03:07;;;;;;;;;;;17.60;99.90;;;;;;5085960;28;19912;-64
2023/04/16 12:05:33;;;;;;;;;;;17.80;99.90;;;;;;5078410;28;19928;-64
2023/04/16 12:08:03;;;;;;;;;;;17.90;99.90;;;;;;5080714;28;19913;-64
2023/04/16 12:10:30;;;;;;;;;;;18.50;99.90;;;;;;5079435;28;19924;-64
2023/04/16 12:13:15;;;;;;;;;;;18.70;99.90;;;;;;5086443;28;19912;-63
2023/04/16 12:15:48;;;;;;;;;;;18.70;99.90;;;;;;5071454;28;19923;-63
2023/04/16 12:18:17;;;;;;;;;;;18.60;99.90;;;;;;5080251;28;19915;-62
2023/04/16 12:20:43;;;;;;;;;;;18.70;99.90;;;;;;5071921;28;19919;-63
2023/04/16 12:23:10;;;;;;;;;;;19.00;99.90;;;;;;5068818;28;19917;-62
2023/04/16 12:25:36;;;;;;;;;;;19.40;99.90;;;;;;5074141;28;20376;-63
2023/04/16 12:28:02;;;;;;;;;;;19.70;99.90;;;;;;5077532;28;19919;-62
2023/04/16 12:30:27;;;;;;;;;;;19.50;99.90;;;;;;5082556;28;19912;-62
2023/04/16 12:33:13;;;;;;;;;;;19.50;99.90;;;;;;5078318;28;19919;-62
2023/04/16 12:35:40;;;;;;;;;;;19.40;99.90;;;;;;5070548;28;19920;-64
2023/04/16 12:38:06;;;;;;;;;;;18.80;99.90;;;;;;5067116;28;19952;-62
2023/04/16 12:40:35;;;;;;;;;;;18.60;99.90;;;;;;5059858;28;19968;-63
2023/04/16 12:43:01;;;;;;;;;;;18.80;99.90;;;;;;5064696;28;19916;-63
2023/04/16 12:45:26;;;;;;;;;;;18.90;99.90;;;;;;5064686;28;19928;-63
2023/04/16 12:47:52;;;;;;;;;;;19.00;99.90;;;;;;5067136;28;20368;-63
2023/04/16 12:50:18;;;;;;;;;;;18.90;99.90;;;;;;5065413;28;19912;-62
2023/04/16 12:52:43;;;;;;;;;;;18.70;99.90;;;;;;5071228;28;19916;-62
2023/04/16 12:55:09;;;;;;;;;;;18.70;99.90;;;;;;5074470;28;20807;-63
2023/04/16 12:57:35;;;;;;;;;;;18.90;99.90;;;;;;5066347;28;20395;-63
2023/04/16 13:00:00;;;;;;;;;;;19.10;99.90;;;;;;5071272;28;19962;-62
2023/04/16 13:02:26;;;;;;;;;;;19.50;99.90;;;;;;5072752;28;19913;-62
2023/04/16 13:04:52;;;;;;;;;;;19.30;99.90;;;;;;5068737;28;19920;-63
2023/04/16 13:07:18;;;;;;;;;;;19.20;99.90;;;;;;5070798;28;19917;-63
2023/04/16 13:09:45;;;;;;;;;;;19.40;99.90;;;;;;5073471;28;20261;-63
2023/04/16 13:12:10;;;;;;;;;;;19.40;99.90;;;;;;5069810;28;19922;-62
2023/04/16 13:14:36;;;;;;;;;;;19.50;99.90;;;;;;5071137;28;19994;-63
2023/04/16 13:17:02;;;;;;;;;;;19.50;99.90;;;;;;5072917;28;19919;-64
2023/04/16 13:19:28;;;;;;;;;;;19.50;99.90;;;;;;5067092;28;19921;-63
2023/04/16 13:21:54;;;;;;;;;;;19.70;99.90;;;;;;5069750;28;19990;-62
2023/04/16 13:24:20;;;;;;;;;;;20.00;99.90;;;;;;5070826;28;19917;-63
2023/04/16 13:26:46;;;;;;;;;;;19.90;99.90;;;;;;5072262;28;19927;-60
2023/04/16 13:29:11;;;;;;;;;;;19.90;99.90;;;;;;5068048;28;20268;-62
2023/04/16 13:31:37;;;;;;;;;;;19.70;99.90;;;;;;5071220;28;19912;-63
2023/04/16 13:34:03;;;;;;;;;;;19.80;99.90;;;;;;5071374;28;20011;-62
2023/04/16 13:36:30;;;;;;;;;;;20.00;99.90;;;;;;5067997;28;20349;-63
2023/04/16 13:38:57;;;;;;;;;;;20.00;99.90;;;;;;5062776;28;20020;-65
2023/04/16 13:41:22;;;;;;;;;;;19.90;99.90;;;;;;5062888;28;19917;-66
2023/04/16 13:43:48;;;;;;;;;;;19.90;99.90;;;;;;5057528;28;19978;-65
2023/04/16 13:46:14;;;;;;;;;;;19.60;99.90;;;;;;5068872;28;19921;-65
2023/04/16 13:48:40;;;;;;;;;;;19.70;99.90;;;;;;5067565;28;19919;-64
2023/04/16 13:51:05;;;;;;;;;;;19.70;99.90;;;;;;5066211;28;20331;-63
2023/04/16 13:53:31;;;;;;;;;;;19.50;99.90;;;;;;5066208;28;20003;-63
2023/04/16 13:55:56;;;;;;;;;;;19.60;99.90;;;;;;5068209;28;19913;-64
2023/04/16 13:58:22;;;;;;;;;;;19.70;99.90;;;;;;5067674;28;20003;-63
2023/04/16 14:00:47;;;;;;;;;;;19.90;99.90;;;;;;5068751;28;19966;-63
2023/04/16 14:03:13;;;;;;;;;;;20.00;99.90;;;;;;5063052;28;19973;-64
2023/04/16 14:05:40;;;;;;;;;;;20.60;99.90;;;;;;5070171;28;20022;-64
2023/04/16 14:08:05;;;;;;;;;;;20.80;99.90;;;;;;5065656;28;20004;-62
2023/04/16 14:10:31;;;;;;;;;;;21.40;99.90;;;;;;5066223;28;20039;-63
2023/04/16 14:12:57;;;;;;;;;;;21.60;99.90;;;;;;5067809;28;19942;-62
2023/04/16 14:15:25;;;;;;;;;;;22.10;99.60;;;;;;5069585;28;19912;-63
2023/04/16 14:17:51;;;;;;;;;;;22.60;96.80;;;;;;5068914;28;19963;-62